createdAt,value
2023-02-25T00:00:18.183Z,100368.28
2023-02-25T00:02:51.924Z,100383.34
2023-02-25T00:05:22.308Z,100383.69
2023-02-25T00:07:52.467Z,100388.28
2023-02-25T00:10:22.761Z,100374.81
2023-02-25T00:12:52.857Z,100374.53
2023-02-25T00:15:23.100Z,100366.75
2023-02-25T00:18:01.320Z,100360.91
2023-02-25T00:20:31.506Z,100356.56
2023-02-25T00:23:01.488Z,100357.63
2023-02-25T00:25:31.704Z,100358.16
2023-02-25T00:28:06.262Z,100364.66
2023-02-25T00:30:36.445Z,100355.53
2023-02-25T00:33:11.323Z,100362.00
2023-02-25T00:35:43.030Z,100356.13
2023-02-25T00:38:16.052Z,100370.09
2023-02-25T00:40:47.174Z,100369.59
2023-02-25T00:43:31.914Z,100361.06
2023-02-25T00:46:02.434Z,100363.16
2023-02-25T00:48:35.316Z,100360.97
2023-02-25T00:51:10.216Z,100364.25
2023-02-25T00:53:40.837Z,100361.06
2023-02-25T00:56:15.097Z,100358.03
2023-02-25T00:59:03.171Z,100358.22
2023-02-25T01:01:47.836Z,100363.09
2023-02-25T01:04:20.613Z,100367.09
2023-02-25T01:12:32.486Z,100358.81
2023-02-25T01:15:12.501Z,100366.38
2023-02-25T01:17:44.472Z,100368.25
2023-02-25T01:20:24.386Z,100365.66
2023-02-25T01:22:54.637Z,100359.00
2023-02-25T01:25:25.708Z,100360.63
2023-02-25T01:28:01.688Z,100364.38
2023-02-25T01:30:35.863Z,100363.59
2023-02-25T01:33:10.614Z,100364.97
2023-02-25T01:35:43.337Z,100367.38
2023-02-25T01:38:13.393Z,100358.56
2023-02-25T01:40:49.545Z,100367.66
2023-02-25T01:43:19.624Z,100361.19
2023-02-25T01:46:10.922Z,100367.16
2023-02-25T01:48:44.546Z,100366.06
2023-02-25T01:51:17.240Z,100366.94
2023-02-25T01:53:50.248Z,100369.91
2023-02-25T01:56:47.499Z,100365.91
2023-02-25T01:59:18.442Z,100373.69
2023-02-25T02:01:49.064Z,100374.78
2023-02-25T02:04:21.535Z,100378.50
2023-02-25T02:06:54.713Z,100382.22
2023-02-25T02:09:28.808Z,100374.88
2023-02-25T02:12:02.075Z,100370.00
2023-02-25T02:14:35.961Z,100375.59
2023-02-25T02:17:23.603Z,100376.13
2023-02-25T02:20:14.412Z,100366.38
2023-02-25T02:23:11.597Z,100386.00
2023-02-25T02:26:15.311Z,100382.06
2023-02-25T02:29:32.438Z,100361.69
2023-02-25T02:32:17.646Z,100369.78
2023-02-25T02:34:56.678Z,100370.34
2023-02-25T02:37:41.481Z,100369.41
2023-02-25T02:40:25.822Z,100374.69
2023-02-25T02:43:18.434Z,100368.81
2023-02-25T02:45:54.065Z,100363.69
2023-02-25T02:48:33.422Z,100369.31
2023-02-25T02:51:10.944Z,100373.66
2023-02-25T02:53:45.941Z,100379.53
2023-02-25T02:56:26.892Z,100369.91
2023-02-25T02:59:02.348Z,100370.72
2023-02-25T03:01:35.886Z,100374.69
2023-02-25T03:04:28.761Z,100371.50
2023-02-25T03:07:05.235Z,100363.50
2023-02-25T03:10:05.179Z,100371.50
2023-02-25T03:12:39.631Z,100367.22
2023-02-25T03:15:11.899Z,100366.72
2023-02-25T03:17:46.208Z,100383.06
2023-02-25T03:20:27.525Z,100376.94
2023-02-25T03:22:59.757Z,100381.81
2023-02-25T03:25:34.190Z,100384.16
2023-02-25T03:28:07.839Z,100389.84
2023-02-25T03:30:43.974Z,100400.47
2023-02-25T03:33:17.504Z,100382.97
2023-02-25T03:35:54.125Z,100377.28
2023-02-25T03:38:29.705Z,100382.06
2023-02-25T03:41:04.193Z,100389.06
2023-02-25T03:43:54.554Z,100385.56
2023-02-25T03:46:26.461Z,100393.94
2023-02-25T03:48:57.484Z,100396.31
2023-02-25T03:51:34.138Z,100397.72
2023-02-25T03:54:05.437Z,100388.56
2023-02-25T03:56:44.963Z,100394.53
2023-02-25T03:59:15.186Z,100395.09
2023-02-25T04:01:47.721Z,100392.25
2023-02-25T04:04:18.245Z,100411.81
2023-02-25T04:06:51.203Z,100411.31
2023-02-25T04:09:21.792Z,100416.13
2023-02-25T04:11:54.346Z,100419.91
2023-02-25T04:14:24.393Z,100428.75
2023-02-25T04:16:54.494Z,100413.47
2023-02-25T04:19:26.908Z,100422.09
2023-02-25T04:22:00.609Z,100428.53
2023-02-25T04:24:30.722Z,100416.16
2023-02-25T04:27:01.950Z,100429.13
2023-02-25T04:29:37.861Z,100421.34
2023-02-25T04:32:08.009Z,100423.22
2023-02-25T04:34:38.123Z,100415.16
2023-02-25T04:37:11.021Z,100420.75
2023-02-25T04:39:41.689Z,100424.53
2023-02-25T04:42:11.775Z,100422.63
2023-02-25T04:44:41.776Z,100419.94
2023-02-25T04:47:11.752Z,100412.38
2023-02-25T04:49:45.246Z,100421.78
2023-02-25T04:52:18.424Z,100432.22
2023-02-25T04:54:48.353Z,100425.44
2023-02-25T04:57:18.343Z,100432.66
2023-02-25T04:59:49.517Z,100430.47
2023-02-25T05:02:20.213Z,100423.47
2023-02-25T05:04:50.425Z,100430.16
2023-02-25T05:07:24.020Z,100426.69
2023-02-25T05:09:54.150Z,100425.31
2023-02-25T05:12:24.423Z,100417.00
2023-02-25T05:14:54.695Z,100413.28
2023-02-25T05:17:24.818Z,100402.50
2023-02-25T05:19:54.906Z,100417.88
2023-02-25T05:22:29.496Z,100418.44
2023-02-25T05:24:59.658Z,100416.84
2023-02-25T05:27:29.663Z,100415.03
2023-02-25T05:30:01.887Z,100426.88
2023-02-25T05:32:33.953Z,100427.97
2023-02-25T05:35:09.046Z,100428.53
2023-02-25T05:37:41.887Z,100425.91
2023-02-25T05:40:14.927Z,100422.63
2023-02-25T05:42:51.405Z,100424.22
2023-02-25T05:45:22.051Z,100422.09
2023-02-25T05:48:02.841Z,100419.38
2023-02-25T05:50:34.840Z,100426.41
2023-02-25T05:53:10.059Z,100436.09
2023-02-25T05:55:44.536Z,100437.69
2023-02-25T05:58:15.181Z,100434.00
2023-02-25T06:00:45.309Z,100438.28
2023-02-25T06:03:15.453Z,100433.41
2023-02-25T06:05:47.925Z,100434.50
2023-02-25T06:08:20.790Z,100427.50
2023-02-25T06:10:50.760Z,100423.53
2023-02-25T06:13:20.948Z,100440.97
2023-02-25T06:15:51.024Z,100433.91
2023-02-25T06:18:21.791Z,100435.75
2023-02-25T06:20:51.908Z,100451.03
2023-02-25T06:23:30.752Z,100448.09
2023-02-25T06:26:01.250Z,100459.13
2023-02-25T06:28:31.490Z,100447.56
2023-02-25T06:31:01.502Z,100453.75
2023-02-25T06:33:32.700Z,100457.72
2023-02-25T06:36:02.697Z,100465.59
2023-02-25T06:38:35.499Z,100461.88
2023-02-25T06:41:10.118Z,100474.22
2023-02-25T06:43:41.351Z,100476.16
2023-02-25T06:46:14.025Z,100463.25
2023-02-25T06:48:44.396Z,100466.19
2023-02-25T06:51:15.674Z,100470.53
2023-02-25T06:53:57.162Z,100477.03
2023-02-25T06:56:27.354Z,100469.97
2023-02-25T06:58:59.518Z,100482.34
2023-02-25T07:01:31.445Z,100486.94
2023-02-25T07:04:01.587Z,100490.97
2023-02-25T07:06:31.663Z,100489.34
2023-02-25T07:09:04.435Z,100501.19
2023-02-25T07:11:36.868Z,100501.44
2023-02-25T07:14:09.312Z,100495.25
2023-02-25T07:16:39.470Z,100496.84
2023-02-25T07:19:09.642Z,100504.34
2023-02-25T07:21:40.655Z,100502.22
2023-02-25T07:24:14.404Z,100494.41
2023-02-25T07:26:44.393Z,100496.56
2023-02-25T07:29:17.414Z,100490.63
2023-02-25T07:31:47.950Z,100497.00
2023-02-25T07:34:20.101Z,100502.63
2023-02-25T07:36:50.263Z,100500.50
2023-02-25T07:39:23.007Z,100510.19
2023-02-25T07:41:53.124Z,100511.00
2023-02-25T07:44:23.917Z,100516.59
2023-02-25T07:46:55.422Z,100527.66
2023-02-25T07:49:25.521Z,100524.09
2023-02-25T07:51:55.665Z,100525.13
2023-02-25T07:54:32.799Z,100517.06
2023-02-25T07:57:03.094Z,100521.94
2023-02-25T07:59:43.049Z,100541.28
2023-02-25T08:02:39.408Z,100534.31
2023-02-25T08:05:10.318Z,100553.50
2023-02-25T08:07:44.688Z,100549.41
2023-02-25T08:10:49.044Z,100552.13
2023-02-25T08:13:22.326Z,100557.44
2023-02-25T08:15:52.409Z,100559.34
2023-02-25T08:18:43.188Z,100559.94
2023-02-25T08:21:13.631Z,100559.69
2023-02-25T08:23:43.874Z,100561.28
2023-02-25T08:26:16.074Z,100566.09
2023-02-25T08:28:49.582Z,100571.41
2023-02-25T08:31:19.964Z,100568.16
2023-02-25T08:33:53.201Z,100574.50
2023-02-25T08:36:25.405Z,100565.53
2023-02-25T08:38:59.144Z,100574.97
2023-02-25T08:41:30.990Z,100571.19
2023-02-25T08:44:03.610Z,100566.25
2023-02-25T08:46:35.962Z,100554.66
2023-02-25T08:49:07.230Z,100567.25
2023-02-25T08:51:38.758Z,100569.91
2023-02-25T08:54:13.970Z,100575.69
2023-02-25T08:56:45.737Z,100569.63
2023-02-25T08:59:40.235Z,100570.22
2023-02-25T09:02:17.306Z,100572.78
2023-02-25T09:04:47.353Z,100576.63
2023-02-25T09:07:24.955Z,100569.63
2023-02-25T09:09:55.058Z,100581.38
2023-02-25T09:12:25.602Z,100594.03
2023-02-25T09:14:58.369Z,100599.13
2023-02-25T09:17:42.583Z,100606.22
2023-02-25T09:20:19.124Z,100604.03
2023-02-25T09:22:49.195Z,100610.22
2023-02-25T09:25:19.544Z,100605.41
2023-02-25T09:27:49.862Z,100613.00
2023-02-25T09:30:22.761Z,100610.56
2023-02-25T09:32:56.244Z,100626.38
2023-02-25T09:35:26.530Z,100618.53
2023-02-25T09:37:56.726Z,100629.88
2023-02-25T09:40:27.012Z,100632.25
2023-02-25T09:43:11.800Z,100635.00
2023-02-25T09:45:47.715Z,100648.47
2023-02-25T09:48:26.996Z,100653.72
2023-02-25T09:51:04.491Z,100663.25
2023-02-25T09:53:39.793Z,100678.25
2023-02-25T09:56:11.228Z,100694.28
2023-02-25T09:58:47.045Z,100683.28
2023-02-25T10:01:27.732Z,100686.94
2023-02-25T10:04:05.337Z,100697.16
2023-02-25T10:06:43.714Z,100704.78
2023-02-25T10:09:25.122Z,100707.44
2023-02-25T10:12:02.320Z,100696.09
2023-02-25T10:14:58.656Z,100700.63
2023-02-25T10:17:44.584Z,100697.09
2023-02-25T10:20:44.457Z,100701.09
2023-02-25T10:23:26.285Z,100689.94
2023-02-25T10:26:01.900Z,100702.78
2023-02-25T10:28:33.687Z,100709.16
2023-02-25T10:31:09.253Z,100704.78
2023-02-25T10:33:44.100Z,100710.56
2023-02-25T10:36:19.407Z,100716.91
2023-02-25T10:38:51.547Z,100708.19
2023-02-25T10:41:25.604Z,100710.69
2023-02-25T10:43:57.832Z,100710.22
2023-02-25T10:46:36.555Z,100712.31
2023-02-25T10:49:21.155Z,100708.81
2023-02-25T10:52:18.770Z,100717.50
2023-02-25T10:58:03.093Z,100721.06
2023-02-25T11:00:36.666Z,100712.53
2023-02-25T11:03:11.118Z,100720.06
2023-02-25T11:06:35.439Z,100727.41
2023-02-25T11:09:30.018Z,100724.19
2023-02-25T11:12:42.154Z,100717.69
2023-02-25T11:15:44.790Z,100720.03
2023-02-25T11:18:28.894Z,100737.19
2023-02-25T11:21:10.350Z,100716.84
2023-02-25T11:23:47.508Z,100725.72
2023-02-25T11:26:32.508Z,100712.91
2023-02-25T11:29:51.249Z,100728.63
2023-02-25T11:32:25.648Z,100730.75
2023-02-25T11:39:13.580Z,100723.09
2023-02-25T11:42:10.504Z,100720.03
2023-02-25T11:51:47.289Z,100732.81
2023-02-25T11:54:52.729Z,100730.84
2023-02-25T11:57:38.724Z,100729.53
2023-02-25T12:00:25.790Z,100735.78
2023-02-25T12:03:16.821Z,100752.13
2023-02-25T12:05:56.521Z,100760.88
2023-02-25T12:08:47.566Z,100750.25
2023-02-25T12:12:11.574Z,100751.97
2023-02-25T12:15:24.387Z,100754.59
2023-02-25T12:21:49.108Z,100753.22
2023-02-25T12:24:57.536Z,100761.09
2023-02-25T12:28:33.432Z,100763.81
2023-02-25T12:32:02.930Z,100778.03
2023-02-25T12:34:57.769Z,100762.53
2023-02-25T12:41:51.537Z,100774.38
2023-02-25T12:52:27.479Z,100772.41
2023-02-25T12:55:28.568Z,100772.03
2023-02-25T12:58:32.484Z,100767.97
2023-02-25T13:01:45.855Z,100770.25
2023-02-25T13:05:14.731Z,100765.34
2023-02-25T13:08:30.619Z,100788.13
2023-02-25T13:12:09.929Z,100811.63
2023-02-25T13:34:10.076Z,100807.69
2023-02-25T14:04:07.501Z,100837.53
2023-02-25T14:07:15.942Z,100836.09
2023-02-25T14:09:54.730Z,100831.75
2023-02-25T14:12:39.199Z,100843.81
2023-02-25T14:15:24.637Z,100847.59
2023-02-25T14:18:24.054Z,100831.41
2023-02-25T14:21:09.773Z,100841.63
2023-02-25T14:23:52.135Z,100848.50
2023-02-25T14:26:36.675Z,100848.50
2023-02-25T14:29:18.994Z,100854.34
2023-02-25T14:32:05.079Z,100860.56
2023-02-25T14:34:59.326Z,100863.91
2023-02-25T14:37:40.419Z,100867.97
2023-02-25T14:40:25.960Z,100866.31
2023-02-25T14:43:15.253Z,100873.53
2023-02-25T14:45:49.098Z,100872.59
2023-02-25T14:48:27.807Z,100880.19
2023-02-25T14:51:07.965Z,100868.00
2023-02-25T14:54:02.141Z,100888.66
2023-02-25T14:57:01.211Z,100877.31
2023-02-25T15:00:00.797Z,100879.75
2023-02-25T15:02:53.255Z,100892.47
2023-02-25T15:05:52.756Z,100899.00
2023-02-25T15:08:56.551Z,100889.19
2023-02-25T15:12:04.131Z,100897.66
2023-02-25T15:15:14.484Z,100898.44
2023-02-25T15:18:29.998Z,100895.81
2023-02-25T15:21:00.677Z,100889.25
2023-02-25T15:23:52.396Z,100901.78
2023-02-25T15:26:25.266Z,100912.13
2023-02-25T15:28:58.469Z,100913.03
2023-02-25T15:31:34.327Z,100919.88
2023-02-25T15:34:36.932Z,100926.50
2023-02-25T15:37:39.091Z,100923.59
2023-02-25T15:40:38.941Z,100931.94
2023-02-25T15:43:38.744Z,100941.44
2023-02-25T15:46:44.236Z,100947.66
2023-02-25T15:49:37.942Z,100949.38
2023-02-25T15:52:09.374Z,100947.66
2023-02-25T15:54:50.652Z,100949.38
2023-02-25T15:57:42.302Z,100954.19
2023-02-25T16:00:42.190Z,100964.47
2023-02-25T16:03:29.430Z,100964.97
2023-02-25T16:06:07.277Z,100973.13
2023-02-25T16:08:44.473Z,100986.13
2023-02-25T16:11:25.897Z,100979.16
2023-02-25T16:13:56.765Z,100979.66
2023-02-25T16:16:28.303Z,100991.75
2023-02-25T16:19:00.819Z,100995.31
2023-02-25T16:21:43.204Z,100994.75
2023-02-25T16:24:14.662Z,100987.22
2023-02-25T16:26:56.626Z,100992.13
2023-02-25T16:29:53.032Z,101009.47
2023-02-25T16:32:33.945Z,101006.25
2023-02-25T16:35:12.078Z,101005.69
2023-02-25T16:37:53.099Z,101016.03
2023-02-25T16:40:28.874Z,101017.63
2023-02-25T16:43:02.867Z,101016.03
2023-02-25T16:45:36.314Z,101033.34
2023-02-25T16:48:11.016Z,101036.09
2023-02-25T16:50:42.238Z,101044.16
2023-02-25T16:53:22.412Z,101045.25
2023-02-25T16:55:54.066Z,101053.34
2023-02-25T16:58:26.202Z,101054.94
2023-02-25T17:00:58.394Z,101057.13
2023-02-25T17:03:31.108Z,101049.84
2023-02-25T17:06:07.779Z,101055.50
2023-02-25T17:08:46.768Z,101058.72
2023-02-25T17:11:20.186Z,101074.88
2023-02-25T17:13:51.476Z,101071.16
2023-02-25T17:16:25.016Z,101068.16
2023-02-25T17:18:59.048Z,101075.19
2023-02-25T17:21:33.891Z,101081.38
2023-02-25T17:24:09.848Z,101091.09
2023-02-25T17:26:45.178Z,101089.22
2023-02-25T17:29:18.067Z,101087.91
2023-02-25T17:31:51.052Z,101094.63
2023-02-25T17:34:24.294Z,101092.47
2023-02-25T17:36:55.398Z,101112.66
2023-02-25T17:39:29.805Z,101109.97
2023-02-25T17:41:59.960Z,101118.59
2023-02-25T17:44:48.225Z,101108.34
2023-02-25T17:47:24.789Z,101125.31
2023-02-25T17:49:55.816Z,101129.88
2023-02-25T17:52:27.553Z,101138.50
2023-02-25T17:55:03.975Z,101136.59
2023-02-25T17:57:35.488Z,101139.56
2023-02-25T18:00:23.904Z,101152.50
2023-02-25T18:03:17.487Z,101146.28
2023-02-25T18:05:54.107Z,101154.09
2023-02-25T18:08:25.102Z,101163.78
2023-02-25T18:11:01.193Z,101155.66
2023-02-25T18:13:36.935Z,101163.22
2023-02-25T18:16:39.453Z,101172.56
2023-02-25T18:19:29.995Z,101181.97
2023-02-25T18:22:01.253Z,101183.03
2023-02-25T18:24:34.686Z,101166.38
2023-02-25T18:27:26.316Z,101165.25
2023-02-25T18:29:57.345Z,101179.25
2023-02-25T18:32:28.161Z,101183.50
2023-02-25T18:34:58.730Z,101182.44
2023-02-25T18:37:32.325Z,101186.75
2023-02-25T18:40:02.595Z,101194.22
2023-02-25T18:42:35.267Z,101193.97
2023-02-25T18:45:15.972Z,101197.47
2023-02-25T18:47:46.357Z,101191.53
2023-02-25T18:50:17.053Z,101188.84
2023-02-25T18:52:47.578Z,101199.59
2023-02-25T18:55:21.142Z,101209.56
2023-02-25T18:57:54.235Z,101193.16
2023-02-25T19:00:27.706Z,101200.94
2023-02-25T19:03:00.059Z,101206.88
2023-02-25T19:05:30.863Z,101211.91
2023-02-25T19:08:01.144Z,101206.53
2023-02-25T19:10:34.385Z,101214.59
2023-02-25T19:13:10.814Z,101217.25
2023-02-25T19:15:40.938Z,101210.84
2023-02-25T19:18:14.538Z,101219.16
2023-02-25T19:20:45.377Z,101217.84
2023-02-25T19:23:17.692Z,101214.06
2023-02-25T19:25:52.405Z,101225.63
2023-02-25T19:28:28.335Z,101222.63
2023-02-25T19:30:58.341Z,101226.34
2023-02-25T19:33:29.694Z,101240.22
2023-02-25T19:36:00.520Z,101242.66
2023-02-25T19:38:30.589Z,101247.22
2023-02-25T19:41:04.471Z,101235.97
2023-02-25T19:43:37.767Z,101242.44
2023-02-25T19:46:11.987Z,101249.41
2023-02-25T19:48:42.147Z,101245.06
2023-02-25T19:51:13.498Z,101253.03
2023-02-25T19:53:43.774Z,101258.72
2023-02-25T19:56:16.954Z,101255.97
2023-02-25T19:58:49.694Z,101261.28
2023-02-25T20:01:20.586Z,101274.34
2023-02-25T20:03:51.380Z,101272.69
2023-02-25T20:06:23.685Z,101272.69
2023-02-25T20:08:56.219Z,101278.50
2023-02-25T20:11:26.813Z,101274.78
2023-02-25T20:14:00.536Z,101270.97
2023-02-25T20:16:30.914Z,101276.34
2023-02-25T20:19:01.202Z,101280.03
2023-02-25T20:21:31.726Z,101281.16
2023-02-25T20:24:02.307Z,101283.59
2023-02-25T20:26:33.536Z,101289.00
2023-02-25T20:29:06.575Z,101294.06
2023-02-25T20:31:36.714Z,101297.25
2023-02-25T20:34:07.079Z,101297.25
2023-02-25T20:36:44.045Z,101290.75
2023-02-25T20:39:34.649Z,101286.47
2023-02-25T20:42:06.508Z,101303.19
2023-02-25T20:44:39.781Z,101300.50
2023-02-25T20:47:10.394Z,101306.94
2023-02-25T20:49:41.352Z,101318.75
2023-02-25T20:52:14.688Z,101312.22
2023-02-25T20:54:45.097Z,101308.41
2023-02-25T20:57:18.010Z,101321.44
2023-02-25T20:59:51.217Z,101321.63
2023-02-25T21:02:21.573Z,101317.28
2023-02-25T21:04:52.188Z,101335.78
2023-02-25T21:07:22.279Z,101331.13
2023-02-25T21:09:52.381Z,101338.09
2023-02-25T21:12:22.376Z,101338.78
2023-02-25T21:14:55.444Z,101344.97
2023-02-25T21:17:25.515Z,101347.06
2023-02-25T21:19:55.664Z,101348.69
2023-02-25T21:22:25.748Z,101339.47
2023-02-25T21:24:57.720Z,101343.22
2023-02-25T21:27:30.397Z,101355.00
2023-02-25T21:30:03.374Z,101360.84
2023-02-25T21:32:33.358Z,101357.47
2023-02-25T21:35:04.326Z,101369.56
2023-02-25T21:37:34.408Z,101358.53
2023-02-25T21:40:04.464Z,101361.78
2023-02-25T21:42:34.577Z,101353.41
2023-02-25T21:45:09.994Z,101358.47
2023-02-25T21:47:42.898Z,101363.25
2023-02-25T21:50:14.497Z,101372.31
2023-02-25T21:52:44.354Z,101364.25
2023-02-25T21:55:14.746Z,101367.97
2023-02-25T21:57:45.072Z,101373.66
2023-02-25T22:00:18.622Z,101379.72
2023-02-25T22:02:48.766Z,101377.56
2023-02-25T22:05:21.093Z,101383.00
2023-02-25T22:07:51.438Z,101381.72
2023-02-25T22:10:22.321Z,101390.47
2023-02-25T22:12:52.548Z,101390.81
2023-02-25T22:15:25.286Z,101407.44
2023-02-25T22:17:55.238Z,101395.41
2023-02-25T22:20:25.165Z,101394.94
2023-02-25T22:22:55.295Z,101389.25
2023-02-25T22:25:25.156Z,101395.41
2023-02-25T22:27:55.066Z,101392.97
2023-02-25T22:30:27.948Z,101407.59
2023-02-25T22:32:58.111Z,101395.75
2023-02-25T22:35:28.453Z,101401.09
2023-02-25T22:37:58.365Z,101401.09
2023-02-25T22:40:29.129Z,101401.91
2023-02-25T22:42:59.264Z,101389.81
2023-02-25T22:45:31.862Z,101386.66
2023-02-25T22:48:01.856Z,101388.28
2023-02-25T22:50:31.966Z,101390.63
2023-02-25T22:53:02.261Z,101398.34
2023-02-25T22:55:32.266Z,101402.63
2023-02-25T22:58:04.513Z,101411.72
2023-02-25T23:00:40.325Z,101403.38
2023-02-25T23:03:11.108Z,101391.84
2023-02-25T23:05:41.083Z,101401.44
2023-02-25T23:08:10.935Z,101407.25
2023-02-25T23:10:41.137Z,101402.16
2023-02-25T23:13:11.797Z,101404.97
2023-02-25T23:15:47.636Z,101409.69
2023-02-25T23:18:19.353Z,101416.66
2023-02-25T23:20:53.688Z,101404.00
2023-02-25T23:23:23.557Z,101410.19
2023-02-25T23:25:55.237Z,101413.91
2023-02-25T23:28:28.236Z,101424.28
2023-02-25T23:31:01.289Z,101418.03
2023-02-25T23:33:31.695Z,101419.41
2023-02-25T23:36:02.339Z,101420.69
2023-02-25T23:38:32.241Z,101417.47
2023-02-25T23:41:02.422Z,101419.06
2023-02-25T23:43:32.620Z,101420.69
2023-02-25T23:46:09.189Z,101429.31
2023-02-25T23:48:39.126Z,101422.81
2023-02-25T23:51:11.002Z,101422.00
2023-02-25T23:53:40.914Z,101433.06
2023-02-25T23:56:13.022Z,101440.59
2023-02-25T23:58:43.145Z,101438.16
